Etusivu
METAR-TAF:

METAR-TAF

Lentoasemat :

Ouargla, Algeria

Leveyspiiri: 31-55N, Pituuspiiri: 005-24E, korkeus merenpinnasta: 141 m

Tämänhetkinen sää

Tämä raportti tehtiin 31 minuuttia sitten, kello 00.00 UTC
Tuuli 6 kn idästä/kaakosta
Lämpötila 36°C
Kosteus 13%
Ilmanpaine 1011 hPa
Näkyvyys: 8000 m

METAR: DAUU 190000Z 12006KT 8000 NSC 36/03 Q1011

Aika: 01:31 (00:31 UTC)

Sääennuste

Tämä raportti tehtiin 1 tunti ja 31 minuuttia sitten, kello 23.00 UTC
Ennuste voimassa 19. päivästä klo 00 UTC - 19. päivään klo 09 UTC
Tuuli 6 kn idästä/kaakosta
Näkyvyys: 8000 m

TAF: DAUU 182300Z 1900/1909 12006KT 8000 NSC

Säähavainnot ja -ennusteet yli 4000 lentoasemalta (METAR- ja TAF-raportit).

Käytössä olevat sääasemat on merkitty karttaan keltaisilla ja punaisilla pisteillä.

Aseta hiiri pisteen päälle nähdäksesi sääaseman nimen.

Klikkaa sitten nähdäksesi säähavainnot ja -ennusteet.

Kartan vaihtaminen: klikkaa mustalla rastilla varustettuja vihreitä pisteitä, niin voit zoomata sisään; viivalla varustettua vihreää pistettä, niin voit zoomata ulos tai vihreitä nuolia, niin pääset viereisille kartoille.


METAR-TAF: